Time;durP1;ratioP1;P1;durP2;ratioP2;P2;SDS_P1;SDS_P2;PMS_P1;PMS_P2;Temp;Humidity;BMP_temperature;BMP_pressure;BME280_temperature;BME280_humidity;BME280_pressure;Samples;Min_cycle;Max_cycle;Signal;HPM_P1;HPM_P2
2023/06/08 00:02:10;;;;;;;10.20;9.30;;;23.30;51.80;;;;;;4946714;28;20493;-82
2023/06/08 00:04:40;;;;;;;8.87;7.77;;;23.30;51.30;;;;;;4922151;29;20446;-82
2023/06/08 00:07:08;;;;;;;12.00;9.27;;;23.30;51.20;;;;;;4922889;29;20477;-82
2023/06/08 00:09:36;;;;;;;9.43;8.60;;;23.30;51.40;;;;;;4915510;29;21307;-82
2023/06/08 00:12:03;;;;;;;16.10;10.60;;;23.20;51.50;;;;;;4928850;29;20455;-83
2023/06/08 00:14:31;;;;;;;11.43;10.30;;;23.20;51.90;;;;;;4917230;29;20473;-82
2023/06/08 00:17:02;;;;;;;10.70;9.60;;;23.20;52.20;;;;;;4905568;29;20479;-83
2023/06/08 00:19:29;;;;;;;11.23;9.70;;;23.10;52.10;;;;;;4928869;29;20486;-82
2023/06/08 00:21:59;;;;;;;10.70;9.23;;;22.90;52.30;;;;;;4934668;29;20454;-82
2023/06/08 00:24:26;;;;;;;11.07;9.83;;;22.80;51.70;;;;;;4945234;28;20473;-83
2023/06/08 00:26:53;;;;;;;10.97;9.57;;;22.80;52.10;;;;;;4905659;29;20467;-82
2023/06/08 00:29:21;;;;;;;13.87;10.20;;;22.80;51.60;;;;;;4906166;29;20450;-81
2023/06/08 00:31:48;;;;;;;10.70;9.70;;;22.70;51.80;;;;;;4922557;29;20451;-83
2023/06/08 00:34:17;;;;;;;12.03;10.93;;;22.70;52.20;;;;;;4925888;29;20459;-82
2023/06/08 00:36:44;;;;;;;10.67;9.57;;;22.70;52.50;;;;;;4905614;29;20574;-82
2023/06/08 00:39:14;;;;;;;10.77;9.77;;;22.60;52.40;;;;;;4924835;29;20479;-82
2023/06/08 00:41:42;;;;;;;13.33;11.07;;;22.70;52.10;;;;;;4905203;29;20450;-83
2023/06/08 00:44:10;;;;;;;12.83;10.57;;;22.70;52.50;;;;;;4933796;29;20461;-82
2023/06/08 00:46:37;;;;;;;11.60;10.50;;;22.70;52.80;;;;;;4925574;29;20471;-82
2023/06/08 00:49:07;;;;;;;11.07;10.00;;;22.70;52.70;;;;;;4932740;29;20447;-81
2023/06/08 00:51:40;;;;;;;10.83;9.70;;;22.70;52.60;;;;;;4939143;28;20477;-83
2023/06/08 00:54:08;;;;;;;10.73;9.63;;;22.70;52.20;;;;;;4926963;29;20466;-84
2023/06/08 00:56:36;;;;;;;11.83;10.27;;;22.70;53.00;;;;;;4924697;29;21370;-83
2023/06/08 00:59:05;;;;;;;12.00;10.23;;;22.70;52.40;;;;;;4924671;29;20458;-82
2023/06/08 01:01:35;;;;;;;10.40;9.50;;;22.70;52.30;;;;;;4902729;29;20523;-83
2023/06/08 01:04:06;;;;;;;14.57;9.93;;;22.60;52.10;;;;;;4944243;28;20450;-83
2023/06/08 01:06:37;;;;;;;10.10;9.10;;;22.60;52.20;;;;;;4924439;29;20559;-81
2023/06/08 01:09:14;;;;;;;10.53;9.63;;;22.50;52.60;;;;;;4917160;29;20478;-82
2023/06/08 01:11:58;;;;;;;10.57;9.20;;;22.50;52.50;;;;;;4950044;28;21023;-82
2023/06/08 01:14:36;;;;;;;9.57;8.67;;;22.40;52.30;;;;;;4925513;29;20464;-83
2023/06/08 01:17:09;;;;;;;11.47;9.40;;;22.40;52.40;;;;;;4938905;28;20474;-82
2023/06/08 01:19:52;;;;;;;11.00;9.70;;;22.30;53.00;;;;;;4935470;29;20473;-82
2023/06/08 01:22:28;;;;;;;10.90;9.67;;;22.30;52.80;;;;;;4940190;29;20461;-83
2023/06/08 01:24:56;;;;;;;12.83;9.90;;;22.30;53.10;;;;;;4932971;29;20459;-82
2023/06/08 01:27:26;;;;;;;11.87;10.70;;;22.30;52.70;;;;;;4920202;29;21298;-83
2023/06/08 01:29:54;;;;;;;12.00;10.03;;;22.30;52.90;;;;;;4911417;29;20451;-83
2023/06/08 01:32:21;;;;;;;12.27;11.10;;;22.30;53.10;;;;;;4919300;29;20447;-82
2023/06/08 01:34:49;;;;;;;10.10;9.10;;;22.20;53.00;;;;;;4933108;29;20917;-83
2023/06/08 01:37:23;;;;;;;11.17;10.17;;;22.20;53.00;;;;;;4918327;29;20478;-83
2023/06/08 01:39:57;;;;;;;11.60;9.07;;;22.20;52.90;;;;;;4925902;29;21010;-81
2023/06/08 01:42:27;;;;;;;9.73;8.77;;;22.20;52.80;;;;;;4913298;29;20498;-82
2023/06/08 01:44:58;;;;;;;12.07;10.47;;;22.20;52.80;;;;;;4939682;29;20467;-82
2023/06/08 01:47:34;;;;;;;10.40;9.43;;;22.20;53.00;;;;;;4908145;29;20554;-82
2023/06/08 01:50:02;;;;;;;11.43;10.17;;;22.20;53.20;;;;;;4925817;29;20869;-82
2023/06/08 01:52:29;;;;;;;11.73;10.20;;;22.20;53.40;;;;;;4931506;29;20541;-82
2023/06/08 01:54:56;;;;;;;13.60;9.60;;;22.20;53.30;;;;;;4920110;29;20450;-82
2023/06/08 01:57:24;;;;;;;11.47;10.27;;;22.20;53.60;;;;;;4939816;28;20549;-83
2023/06/08 01:59:51;;;;;;;11.50;10.23;;;22.20;53.40;;;;;;4914423;29;20538;-82
2023/06/08 02:02:18;;;;;;;13.00;10.40;;;22.10;53.40;;;;;;4918211;29;20462;-82
2023/06/08 02:04:46;;;;;;;10.30;9.30;;;22.10;53.20;;;;;;4931296;29;20450;-82
2023/06/08 02:07:12;;;;;;;10.37;9.33;;;22.10;53.20;;;;;;4933495;28;20473;-81
2023/06/08 02:09:42;;;;;;;11.30;10.10;;;22.10;53.10;;;;;;4902803;29;21347;-81
2023/06/08 02:12:10;;;;;;;12.40;10.30;;;22.00;53.30;;;;;;4916956;29;20451;-81
2023/06/08 02:14:40;;;;;;;11.47;10.37;;;22.00;53.30;;;;;;4916847;29;20483;-81
2023/06/08 02:17:07;;;;;;;10.37;9.37;;;21.90;53.10;;;;;;4925360;29;20477;-84
2023/06/08 02:19:34;;;;;;;9.83;8.83;;;21.90;53.00;;;;;;4940963;29;20565;-81
2023/06/08 02:22:02;;;;;;;13.57;9.03;;;21.90;53.20;;;;;;4932539;29;20490;-82
2023/06/08 02:24:29;;;;;;;9.70;8.90;;;21.90;53.10;;;;;;4940594;28;20568;-82
2023/06/08 02:26:56;;;;;;;11.47;9.33;;;21.80;52.70;;;;;;4902366;29;20474;-82
2023/06/08 02:29:23;;;;;;;11.27;9.47;;;21.70;53.30;;;;;;4922923;29;20475;-83
2023/06/08 02:31:52;;;;;;;10.00;9.00;;;21.80;53.00;;;;;;4931349;29;20457;-82
2023/06/08 02:34:19;;;;;;;9.83;8.83;;;21.70;52.90;;;;;;4914250;29;20819;-82
2023/06/08 02:36:47;;;;;;;10.80;9.30;;;21.80;53.20;;;;;;4930993;28;20542;-83
2023/06/08 02:39:15;;;;;;;11.73;9.83;;;21.70;53.00;;;;;;4947607;28;20808;-82
2023/06/08 02:41:43;;;;;;;9.90;8.90;;;21.80;53.10;;;;;;4932349;28;20489;-82
2023/06/08 02:44:11;;;;;;;11.83;9.10;;;21.70;53.10;;;;;;4913481;29;20470;-81
2023/06/08 02:46:38;;;;;;;10.53;9.03;;;21.60;53.20;;;;;;4916046;29;20584;-82
2023/06/08 02:49:08;;;;;;;11.00;9.57;;;21.50;53.70;;;;;;4903444;29;20461;-83
2023/06/08 02:51:36;;;;;;;11.70;9.00;;;21.50;53.20;;;;;;4915499;29;20926;-83
2023/06/08 02:54:03;;;;;;;10.43;9.43;;;21.50;53.40;;;;;;4931158;28;20490;-82
2023/06/08 02:56:30;;;;;;;10.00;9.00;;;21.40;53.50;;;;;;4933972;29;20469;-82
2023/06/08 02:58:58;;;;;;;10.27;8.70;;;21.50;53.30;;;;;;4922912;29;20506;-83
2023/06/08 03:01:30;;;;;;;10.40;9.30;;;21.50;53.60;;;;;;4939709;29;20482;-81
2023/06/08 03:04:18;;;;;;;9.70;8.83;;;21.50;53.30;;;;;;4919542;29;20461;-82
2023/06/08 03:06:53;;;;;;;9.50;8.53;;;21.50;53.10;;;;;;4904192;29;20502;-82
2023/06/08 03:09:21;;;;;;;8.87;7.97;;;21.40;52.80;;;;;;4904685;29;20533;-81
2023/06/08 03:11:52;;;;;;;11.20;8.00;;;21.30;52.60;;;;;;4914585;29;21280;-83
2023/06/08 03:14:21;;;;;;;9.40;8.50;;;21.30;52.40;;;;;;4919308;29;20965;-82
2023/06/08 03:16:49;;;;;;;10.63;9.53;;;21.20;53.50;;;;;;4924604;29;20474;-83
2023/06/08 03:19:17;;;;;;;10.93;9.43;;;21.10;53.90;;;;;;4924507;29;20459;-83
2023/06/08 03:21:49;;;;;;;9.37;8.53;;;21.10;54.10;;;;;;4935314;29;20482;-82
2023/06/08 03:24:18;;;;;;;9.67;8.77;;;21.10;53.80;;;;;;4919275;29;20466;-83
2023/06/08 03:26:45;;;;;;;9.60;8.40;;;21.20;53.80;;;;;;4915795;29;20471;-82
2023/06/08 03:29:14;;;;;;;10.70;8.57;;;21.20;53.70;;;;;;4920541;29;20463;-81
2023/06/08 03:31:42;;;;;;;9.70;8.80;;;21.20;53.60;;;;;;4930897;29;20545;-81
2023/06/08 03:34:17;;;;;;;9.80;8.50;;;21.10;53.90;;;;;;4907809;29;20458;-82
2023/06/08 03:36:45;;;;;;;13.07;9.33;;;21.10;54.00;;;;;;4937233;28;20538;-82
2023/06/08 03:39:22;;;;;;;10.13;9.13;;;21.10;53.90;;;;;;4917482;29;20455;-83
2023/06/08 03:41:49;;;;;;;9.43;8.40;;;21.10;53.90;;;;;;4917314;29;20470;-82
2023/06/08 03:44:17;;;;;;;10.10;9.10;;;21.10;54.00;;;;;;4917823;29;20439;-83
2023/06/08 03:46:46;;;;;;;9.63;8.73;;;21.10;53.90;;;;;;4929869;29;20537;-83
2023/06/08 03:49:17;;;;;;;10.97;9.37;;;21.10;54.00;;;;;;4937769;29;20449;-83
2023/06/08 03:51:45;;;;;;;10.90;9.13;;;21.20;54.00;;;;;;4923379;29;21039;-81
2023/06/08 03:54:12;;;;;;;11.13;9.97;;;21.10;53.90;;;;;;4933271;29;20477;-83
2023/06/08 03:56:39;;;;;;;11.00;9.90;;;21.20;54.50;;;;;;4914654;29;20825;-82
2023/06/08 03:59:06;;;;;;;10.03;9.10;;;21.20;54.50;;;;;;4918090;29;20513;-82
2023/06/08 04:01:35;;;;;;;9.70;8.27;;;21.10;54.30;;;;;;4904849;29;20499;-82
2023/06/08 04:04:03;;;;;;;10.33;9.23;;;20.90;54.60;;;;;;4906280;29;20462;-81
2023/06/08 04:06:33;;;;;;;10.87;9.53;;;21.00;54.50;;;;;;4906173;29;20474;-82
2023/06/08 04:09:01;;;;;;;9.73;8.60;;;21.00;54.60;;;;;;4925626;29;20542;-82
2023/06/08 04:11:30;;;;;;;9.00;8.10;;;21.00;54.10;;;;;;4898002;29;20816;-81
2023/06/08 04:13:57;;;;;;;9.73;8.73;;;21.00;53.10;;;;;;4918521;29;20888;-83
2023/06/08 04:16:24;;;;;;;9.77;8.80;;;20.90;53.60;;;;;;4913662;29;20454;-83
2023/06/08 04:18:54;;;;;;;10.10;9.10;;;20.80;53.10;;;;;;4907859;29;20462;-83
2023/06/08 04:21:25;;;;;;;10.07;9.07;;;20.70;53.40;;;;;;4922305;29;20485;-83
2023/06/08 04:23:56;;;;;;;10.67;9.33;;;20.70;53.40;;;;;;4904250;29;20455;-82
2023/06/08 04:26:28;;;;;;;8.20;7.50;;;20.70;54.70;;;;;;4910870;29;21110;-81
2023/06/08 04:28:56;;;;;;;9.70;8.80;;;20.80;55.10;;;;;;4921462;29;20454;-82
2023/06/08 04:31:25;;;;;;;10.47;9.47;;;20.80;55.60;;;;;;4917343;29;20458;-83
2023/06/08 04:33:53;;;;;;;11.00;9.80;;;20.80;55.50;;;;;;4923397;29;20513;-83
2023/06/08 04:36:22;;;;;;;10.33;9.33;;;20.90;55.10;;;;;;4921238;29;20455;-82
2023/06/08 04:38:50;;;;;;;14.70;10.23;;;21.00;55.00;;;;;;4932291;29;20855;-82
2023/06/08 04:41:25;;;;;;;12.10;10.00;;;21.00;55.00;;;;;;4922889;29;20577;-81
2023/06/08 04:43:54;;;;;;;11.27;10.20;;;21.00;55.00;;;;;;4940039;28;20450;-82
2023/06/08 04:46:25;;;;;;;10.90;9.80;;;21.10;55.20;;;;;;4900935;28;20453;-82
2023/06/08 04:48:53;;;;;;;12.10;9.97;;;21.10;54.90;;;;;;4922406;29;20549;-83
2023/06/08 04:51:24;;;;;;;11.20;9.47;;;21.10;55.00;;;;;;4922182;29;21229;-82
2023/06/08 04:53:54;;;;;;;11.47;10.30;;;21.10;55.20;;;;;;4930951;29;20860;-83
2023/06/08 04:56:24;;;;;;;10.23;9.23;;;21.10;55.40;;;;;;4921964;29;20442;-82
2023/06/08 04:58:51;;;;;;;12.73;11.20;;;21.10;55.30;;;;;;4907030;29;21042;-83
2023/06/08 05:01:19;;;;;;;13.00;10.60;;;21.10;55.60;;;;;;4931888;29;21216;-82
2023/06/08 05:03:46;;;;;;;12.87;11.37;;;21.10;56.00;;;;;;4932178;29;20459;-83
2023/06/08 05:06:14;;;;;;;13.63;11.30;;;21.10;55.70;;;;;;4932592;28;20466;-81
2023/06/08 05:08:42;;;;;;;11.50;10.30;;;21.20;55.80;;;;;;4908148;29;20462;-82
2023/06/08 05:11:09;;;;;;;10.83;9.83;;;21.10;55.40;;;;;;4929462;29;20482;-82
2023/06/08 05:13:37;;;;;;;12.07;10.80;;;21.10;55.30;;;;;;4920993;29;20466;-83
2023/06/08 05:16:05;;;;;;;11.40;10.30;;;21.00;55.80;;;;;;4930110;29;20532;-83
2023/06/08 05:18:32;;;;;;;11.90;10.70;;;20.90;55.80;;;;;;4915272;29;20992;-83
2023/06/08 05:20:59;;;;;;;13.20;10.40;;;21.00;56.00;;;;;;4932760;29;20482;-83
2023/06/08 05:23:26;;;;;;;11.40;10.00;;;21.00;55.80;;;;;;4909834;29;20458;-82
2023/06/08 05:25:53;;;;;;;13.27;10.50;;;21.00;55.90;;;;;;4932811;29;20458;-83
2023/06/08 05:28:19;;;;;;;12.77;10.27;;;21.10;55.70;;;;;;4901919;29;20498;-83
2023/06/08 05:30:48;;;;;;;13.40;11.83;;;21.00;56.30;;;;;;4934214;29;20457;-83
2023/06/08 05:33:15;;;;;;;12.90;10.90;;;21.00;56.90;;;;;;4917212;29;20455;-81
2023/06/08 05:35:42;;;;;;;12.83;11.37;;;20.90;56.70;;;;;;4932961;29;20861;-82
2023/06/08 05:38:09;;;;;;;12.73;11.40;;;21.00;56.40;;;;;;4936238;29;20490;-83
2023/06/08 05:40:36;;;;;;;12.60;10.80;;;21.00;56.50;;;;;;4925158;29;20568;-81
2023/06/08 05:43:03;;;;;;;12.00;10.60;;;21.00;55.80;;;;;;4935910;28;20510;-82
2023/06/08 05:45:30;;;;;;;10.77;9.77;;;21.00;55.60;;;;;;4925964;29;20461;-83
2023/06/08 05:47:58;;;;;;;11.93;10.73;;;21.00;55.70;;;;;;4925529;29;20482;-82
2023/06/08 05:50:25;;;;;;;10.23;9.13;;;21.10;55.80;;;;;;4932850;29;20545;-82
2023/06/08 05:52:52;;;;;;;14.33;10.90;;;21.20;56.00;;;;;;4908298;29;20455;-82
2023/06/08 05:55:19;;;;;;;11.07;9.70;;;21.00;55.90;;;;;;4917909;29;20453;-83
2023/06/08 05:57:47;;;;;;;10.40;9.33;;;20.90;56.60;;;;;;4920137;29;20896;-82
2023/06/08 06:00:15;;;;;;;11.40;10.20;;;21.20;56.30;;;;;;4934724;29;20462;-82
2023/06/08 06:02:42;;;;;;;10.00;9.00;;;21.40;56.00;;;;;;4933977;29;20486;-82
2023/06/08 06:05:11;;;;;;;9.87;8.87;;;21.10;56.00;;;;;;4932933;29;20464;-82
2023/06/08 06:07:39;;;;;;;10.33;9.33;;;21.40;56.30;;;;;;4932810;29;20532;-81
2023/06/08 06:10:07;;;;;;;13.17;9.50;;;21.70;56.20;;;;;;4938307;29;20537;-82
2023/06/08 06:12:34;;;;;;;10.40;8.57;;;21.90;55.80;;;;;;4900241;29;21387;-82
2023/06/08 06:15:01;;;;;;;10.10;9.13;;;21.90;55.10;;;;;;4916776;29;20451;-83
2023/06/08 06:17:30;;;;;;;10.27;9.20;;;21.90;55.60;;;;;;4922482;29;20941;-83
2023/06/08 06:19:56;;;;;;;11.13;9.90;;;21.90;55.60;;;;;;4922839;29;20451;-82
2023/06/08 06:22:25;;;;;;;12.53;9.17;;;21.90;55.90;;;;;;4919866;29;20530;-83
2023/06/08 06:24:52;;;;;;;11.97;9.20;;;22.30;55.50;;;;;;4923763;29;20446;-83
2023/06/08 06:27:19;;;;;;;10.53;9.43;;;22.50;55.30;;;;;;4924243;28;21195;-83
2023/06/08 06:29:46;;;;;;;11.30;10.10;;;22.60;54.60;;;;;;4930844;29;20450;-82
2023/06/08 06:32:13;;;;;;;13.53;9.73;;;22.70;54.90;;;;;;4930827;29;20952;-82
2023/06/08 06:34:40;;;;;;;10.20;9.23;;;22.70;54.70;;;;;;4902042;29;20569;-81
2023/06/08 06:37:07;;;;;;;9.37;8.40;;;22.70;55.10;;;;;;4932645;28;20557;-82
2023/06/08 06:39:35;;;;;;;11.27;10.13;;;22.70;56.00;;;;;;4932080;29;20836;-84
2023/06/08 06:42:02;;;;;;;10.83;9.73;;;22.90;55.20;;;;;;4914685;29;20470;-83
2023/06/08 06:44:40;;;;;;;12.50;9.20;;;23.00;54.90;;;;;;4902378;29;20506;-83
2023/06/08 06:47:07;;;;;;;12.10;10.63;;;23.00;55.20;;;;;;4909490;29;21026;-83
2023/06/08 06:49:36;;;;;;;12.00;10.00;;;23.30;55.10;;;;;;4924510;29;20447;-82
2023/06/08 06:52:03;;;;;;;12.97;9.13;;;23.50;54.40;;;;;;4931447;29;20493;-83
2023/06/08 06:54:32;;;;;;;11.77;9.83;;;23.60;54.10;;;;;;4917998;29;20469;-83
2023/06/08 06:57:00;;;;;;;10.90;9.13;;;23.50;54.20;;;;;;4931064;29;20483;-84
2023/06/08 06:59:28;;;;;;;14.00;9.27;;;23.50;54.80;;;;;;4923404;29;20537;-83
2023/06/08 07:01:55;;;;;;;11.30;10.07;;;23.50;55.30;;;;;;4933331;29;20488;-84
2023/06/08 07:04:22;;;;;;;10.30;9.30;;;23.70;55.00;;;;;;4919551;29;20465;-82
2023/06/08 07:06:51;;;;;;;11.90;9.80;;;24.00;54.60;;;;;;4918437;29;20495;-83
2023/06/08 07:09:21;;;;;;;10.80;9.80;;;24.30;54.00;;;;;;4912572;29;20447;-82
2023/06/08 07:11:48;;;;;;;11.77;9.03;;;24.30;54.10;;;;;;4934113;29;20451;-82
2023/06/08 07:14:16;;;;;;;10.60;8.90;;;24.60;53.80;;;;;;4906928;29;20465;-82
2023/06/08 07:16:43;;;;;;;13.60;8.97;;;24.80;53.70;;;;;;4912829;29;20477;-84
2023/06/08 07:19:10;;;;;;;13.70;9.07;;;24.70;53.80;;;;;;4924627;29;20458;-84
2023/06/08 07:21:40;;;;;;;10.57;8.63;;;24.70;53.80;;;;;;4921394;29;20478;-83
2023/06/08 07:24:08;;;;;;;9.60;8.80;;;24.60;53.80;;;;;;4946600;28;20533;-83
2023/06/08 07:26:35;;;;;;;11.40;9.60;;;24.60;53.50;;;;;;4927806;28;20482;-82
2023/06/08 07:29:03;;;;;;;11.90;9.53;;;24.40;54.10;;;;;;4904020;29;20501;-83
2023/06/08 07:31:31;;;;;;;9.97;9.03;;;24.50;54.30;;;;;;4903023;29;20833;-82
2023/06/08 07:33:58;;;;;;;8.87;7.97;;;24.60;54.00;;;;;;4927009;29;20463;-83
2023/06/08 07:36:28;;;;;;;9.80;8.90;;;24.70;52.80;;;;;;4911442;29;20463;-82
2023/06/08 07:38:56;;;;;;;8.70;7.90;;;24.80;52.40;;;;;;4945708;28;20462;-82
2023/06/08 07:41:24;;;;;;;10.43;9.37;;;24.90;52.60;;;;;;4927459;29;20568;-82
2023/06/08 07:43:51;;;;;;;9.47;8.60;;;25.00;52.30;;;;;;4929922;29;21138;-83
2023/06/08 07:46:18;;;;;;;10.00;9.10;;;25.10;52.00;;;;;;4920235;28;20454;-83
2023/06/08 07:48:46;;;;;;;9.97;7.70;;;25.20;51.40;;;;;;4932383;29;20462;-83
2023/06/08 07:51:14;;;;;;;11.53;9.57;;;25.20;51.80;;;;;;4929956;29;21158;-82
2023/06/08 07:53:41;;;;;;;10.50;9.47;;;25.20;51.70;;;;;;4921614;29;20474;-83
2023/06/08 07:56:08;;;;;;;12.33;8.73;;;25.00;51.90;;;;;;4916720;29;20460;-83
2023/06/08 07:58:35;;;;;;;9.60;8.70;;;25.10;52.50;;;;;;4927865;28;20459;-83
2023/06/08 08:01:03;;;;;;;9.87;8.83;;;25.20;52.30;;;;;;4912309;29;20446;-83
2023/06/08 08:03:30;;;;;;;11.00;8.20;;;25.30;51.50;;;;;;4919776;29;20455;-82
2023/06/08 08:05:59;;;;;;;13.40;9.07;;;25.20;51.50;;;;;;4931276;29;20985;-82
2023/06/08 08:08:26;;;;;;;9.70;8.80;;;25.20;51.50;;;;;;4917660;29;21003;-81
2023/06/08 08:10:53;;;;;;;9.30;8.50;;;25.10;51.60;;;;;;4906684;29;20462;-82
2023/06/08 08:13:20;;;;;;;9.80;8.80;;;25.00;52.20;;;;;;4920385;29;21202;-82
2023/06/08 08:15:47;;;;;;;12.93;8.80;;;25.10;52.80;;;;;;4918953;29;20461;-82
2023/06/08 08:18:14;;;;;;;10.73;9.07;;;25.20;52.10;;;;;;4921805;29;20489;-82
2023/06/08 08:20:41;;;;;;;9.83;8.83;;;25.20;52.00;;;;;;4906745;29;21032;-82
2023/06/08 08:23:11;;;;;;;10.50;9.50;;;25.20;52.00;;;;;;4905260;29;21482;-83
2023/06/08 08:25:40;;;;;;;9.70;8.63;;;25.20;51.90;;;;;;4920183;29;20464;-84
2023/06/08 08:28:07;;;;;;;10.27;9.07;;;25.30;51.80;;;;;;4927039;28;20953;-83
2023/06/08 08:30:35;;;;;;;10.03;9.13;;;25.30;51.50;;;;;;4927205;29;20462;-84
2023/06/08 08:33:02;;;;;;;11.93;9.03;;;25.40;51.40;;;;;;4935023;29;20451;-84
2023/06/08 08:35:31;;;;;;;10.80;9.43;;;25.20;51.20;;;;;;4919638;29;20472;-83
2023/06/08 08:37:58;;;;;;;10.63;9.53;;;25.10;51.60;;;;;;4916500;29;20478;-84
2023/06/08 08:40:26;;;;;;;13.43;9.87;;;25.00;51.90;;;;;;4903219;29;20457;-83
2023/06/08 08:43:01;;;;;;;9.73;8.83;;;24.90;52.30;;;;;;4928804;29;20475;-84
2023/06/08 08:45:31;;;;;;;9.70;8.70;;;24.90;52.30;;;;;;4914159;29;20454;-83
2023/06/08 08:47:59;;;;;;;9.27;8.50;;;25.10;52.30;;;;;;4927404;29;20484;-83
2023/06/08 08:50:26;;;;;;;9.80;8.90;;;25.20;52.00;;;;;;4899595;29;21111;-83
2023/06/08 08:52:56;;;;;;;10.33;9.30;;;25.30;51.70;;;;;;4921578;29;20472;-83
2023/06/08 08:55:28;;;;;;;9.83;8.93;;;25.30;52.10;;;;;;4907919;29;20475;-84
2023/06/08 08:57:57;;;;;;;9.07;8.27;;;25.40;51.90;;;;;;4916585;29;21076;-82
2023/06/08 09:00:24;;;;;;;10.20;9.20;;;25.40;51.60;;;;;;4931716;29;20839;-83
2023/06/08 09:02:52;;;;;;;16.23;9.97;;;25.40;51.60;;;;;;4931069;29;20632;-81
2023/06/08 09:05:19;;;;;;;9.40;8.60;;;25.40;51.80;;;;;;4931637;29;20473;-83
2023/06/08 09:07:46;;;;;;;10.53;9.30;;;25.40;52.00;;;;;;4920501;29;20478;-82
2023/06/08 09:10:14;;;;;;;10.40;9.40;;;25.40;52.30;;;;;;4922217;29;20978;-83
2023/06/08 09:12:43;;;;;;;11.03;9.83;;;25.30;52.50;;;;;;4922046;29;20459;-83
2023/06/08 09:15:12;;;;;;;10.67;9.43;;;25.20;52.30;;;;;;4933907;29;21047;-84
2023/06/08 09:17:40;;;;;;;10.07;9.07;;;25.20;52.40;;;;;;4923975;29;20458;-83
2023/06/08 09:20:09;;;;;;;9.60;8.30;;;25.40;52.80;;;;;;4941794;29;20465;-83
2023/06/08 09:22:37;;;;;;;12.57;10.10;;;25.40;52.20;;;;;;4909259;29;20905;-83
2023/06/08 09:25:05;;;;;;;9.13;8.20;;;25.50;52.40;;;;;;4936266;29;20461;-83
2023/06/08 09:27:32;;;;;;;11.07;9.43;;;25.50;52.80;;;;;;4919106;28;20475;-83
2023/06/08 09:30:01;;;;;;;11.00;9.20;;;25.50;52.50;;;;;;4932971;29;20451;-83
2023/06/08 09:32:33;;;;;;;10.80;9.23;;;25.60;52.70;;;;;;4903927;29;20557;-83
2023/06/08 09:35:02;;;;;;;9.83;8.93;;;25.60;53.00;;;;;;4925693;29;20447;-83
2023/06/08 09:37:32;;;;;;;11.07;10.07;;;25.70;53.40;;;;;;4906600;29;20481;-83
2023/06/08 09:40:00;;;;;;;9.40;8.60;;;25.40;52.80;;;;;;4928100;28;20458;-82
2023/06/08 09:42:41;;;;;;;10.67;9.67;;;25.30;52.40;;;;;;4931636;29;20487;-81
2023/06/08 09:45:13;;;;;;;11.57;10.37;;;25.10;53.40;;;;;;4916668;29;20483;-81
2023/06/08 09:47:40;;;;;;;10.87;9.73;;;25.20;53.20;;;;;;4915512;29;20995;-82
2023/06/08 09:50:09;;;;;;;13.23;10.27;;;25.30;53.90;;;;;;4914733;29;20798;-82
2023/06/08 09:52:37;;;;;;;10.43;9.43;;;25.40;53.80;;;;;;4914678;29;20857;-82
2023/06/08 09:55:06;;;;;;;11.90;10.70;;;25.50;54.30;;;;;;4929677;29;20458;-82
2023/06/08 09:57:35;;;;;;;10.30;9.23;;;25.60;54.90;;;;;;4922883;29;20530;-82
2023/06/08 10:00:14;;;;;;;12.00;9.73;;;25.50;54.30;;;;;;4917313;29;20506;-82
2023/06/08 10:02:54;;;;;;;10.80;9.70;;;25.50;54.70;;;;;;4932979;28;20470;-83
2023/06/08 10:05:23;;;;;;;10.90;8.87;;;25.40;54.40;;;;;;4918288;29;20446;-82
2023/06/08 10:07:55;;;;;;;12.17;10.90;;;25.60;54.50;;;;;;4922760;29;20474;-82
2023/06/08 10:10:24;;;;;;;10.20;9.20;;;25.80;53.70;;;;;;4912977;29;20443;-82
2023/06/08 10:12:52;;;;;;;10.37;9.30;;;26.10;52.90;;;;;;4949248;28;21163;-82
2023/06/08 10:15:21;;;;;;;9.43;8.47;;;26.10;53.30;;;;;;4931048;29;21097;-82
2023/06/08 10:17:50;;;;;;;9.63;8.63;;;26.30;52.30;;;;;;4907684;29;20470;-82
2023/06/08 10:20:17;;;;;;;10.00;9.00;;;26.60;51.50;;;;;;4916446;29;20466;-83
2023/06/08 10:22:46;;;;;;;9.87;8.97;;;27.00;51.20;;;;;;4930303;29;20475;-83
2023/06/08 10:25:16;;;;;;;11.60;8.80;;;27.40;50.30;;;;;;4931288;29;20458;-83
2023/06/08 10:27:50;;;;;;;8.40;7.60;;;27.70;48.70;;;;;;4933943;29;20588;-83
2023/06/08 10:30:28;;;;;;;8.80;8.00;;;27.80;48.50;;;;;;4915636;29;20461;-83
2023/06/08 10:33:08;;;;;;;8.37;7.43;;;27.50;45.80;;;;;;4931783;29;20533;-83
2023/06/08 10:35:35;;;;;;;8.80;7.83;;;27.30;45.90;;;;;;4930793;29;20544;-82
2023/06/08 10:38:09;;;;;;;8.70;7.90;;;27.10;46.70;;;;;;4905686;29;20481;-83
2023/06/08 10:40:43;;;;;;;9.67;8.47;;;27.20;48.00;;;;;;4931366;29;20454;-84
2023/06/08 10:43:09;;;;;;;13.57;7.90;;;27.20;48.90;;;;;;4912804;29;20470;-83
2023/06/08 10:45:38;;;;;;;14.13;8.40;;;27.40;48.60;;;;;;4920786;29;20463;-82
2023/06/08 10:48:10;;;;;;;8.27;7.47;;;27.30;47.80;;;;;;4922256;29;20967;-83
2023/06/08 10:50:38;;;;;;;8.43;7.67;;;27.60;48.50;;;;;;4928995;29;20455;-83
2023/06/08 10:53:05;;;;;;;10.60;7.57;;;28.00;47.20;;;;;;4931715;29;21056;-84
2023/06/08 10:55:32;;;;;;;9.13;7.90;;;28.30;46.20;;;;;;4932737;29;20461;-84
2023/06/08 10:58:06;;;;;;;10.33;7.10;;;28.50;45.20;;;;;;4921712;29;20466;-82
2023/06/08 11:00:43;;;;;;;8.00;7.30;;;28.80;45.00;;;;;;4929088;29;20447;-84
2023/06/08 11:03:14;;;;;;;9.63;7.50;;;29.00;43.60;;;;;;4921921;29;20537;-83
2023/06/08 11:05:43;;;;;;;7.50;6.90;;;29.20;44.00;;;;;;4931683;29;20888;-83
2023/06/08 11:08:10;;;;;;;8.60;7.90;;;29.30;43.00;;;;;;4930849;29;20475;-83
2023/06/08 11:10:39;;;;;;;7.30;6.70;;;29.50;42.50;;;;;;4920850;29;20469;-83
2023/06/08 11:13:08;;;;;;;8.87;7.90;;;29.50;42.70;;;;;;4930244;29;20506;-83
2023/06/08 11:15:37;;;;;;;8.00;7.30;;;29.70;42.40;;;;;;4946690;28;20459;-83
2023/06/08 11:18:07;;;;;;;8.30;7.50;;;29.60;41.60;;;;;;4922681;29;20479;-84
2023/06/08 11:20:38;;;;;;;9.47;8.37;;;29.80;42.20;;;;;;4921461;29;20461;-82
2023/06/08 11:23:07;;;;;;;9.77;7.27;;;29.90;42.10;;;;;;4916493;29;20830;-84
2023/06/08 11:25:34;;;;;;;8.50;7.70;;;29.80;41.60;;;;;;4928911;29;20978;-83
2023/06/08 11:28:02;;;;;;;8.63;7.93;;;29.80;41.70;;;;;;4921580;29;20493;-82
2023/06/08 11:30:31;;;;;;;8.93;7.87;;;29.70;42.40;;;;;;4904573;29;20462;-82
2023/06/08 11:32:59;;;;;;;9.07;7.60;;;29.90;42.00;;;;;;4931604;29;20497;-83
2023/06/08 11:35:26;;;;;;;9.40;8.50;;;29.90;42.50;;;;;;4903603;29;20474;-84
2023/06/08 11:37:59;;;;;;;8.03;7.23;;;29.90;41.60;;;;;;4904868;29;21012;-84
2023/06/08 11:40:26;;;;;;;8.47;7.70;;;29.60;42.50;;;;;;4914487;29;20455;-83
2023/06/08 11:42:55;;;;;;;7.93;7.23;;;29.70;43.80;;;;;;4906721;29;20830;-83
2023/06/08 11:45:23;;;;;;;7.93;7.33;;;29.80;43.00;;;;;;4929278;29;20462;-83
2023/06/08 11:47:52;;;;;;;8.43;7.70;;;30.10;41.90;;;;;;4922370;29;20484;-83
2023/06/08 11:50:20;;;;;;;9.30;8.07;;;30.20;41.70;;;;;;4930898;29;20489;-82
2023/06/08 11:52:48;;;;;;;9.00;8.20;;;30.40;42.50;;;;;;4923156;29;20461;-83
2023/06/08 11:55:22;;;;;;;8.53;7.83;;;30.70;41.10;;;;;;4915864;29;20462;-83
2023/06/08 11:57:55;;;;;;;9.60;7.93;;;31.00;40.70;;;;;;4916775;29;20473;-83
2023/06/08 12:00:25;;;;;;;8.17;7.10;;;31.30;40.50;;;;;;4928079;28;20443;-83
2023/06/08 12:02:52;;;;;;;8.70;7.90;;;31.40;37.90;;;;;;4905543;29;21233;-83
2023/06/08 12:05:23;;;;;;;8.57;7.77;;;31.30;39.10;;;;;;4929666;29;20457;-83
2023/06/08 12:07:57;;;;;;;8.40;7.70;;;31.10;39.00;;;;;;4932144;28;20975;-83
2023/06/08 12:10:33;;;;;;;9.00;8.10;;;31.50;39.80;;;;;;4914535;29;20471;-83
2023/06/08 12:13:00;;;;;;;9.80;7.77;;;31.70;39.20;;;;;;4930578;29;20459;-83
2023/06/08 12:15:27;;;;;;;8.40;7.60;;;31.10;39.60;;;;;;4930277;28;20445;-83
2023/06/08 12:18:01;;;;;;;8.90;8.13;;;31.20;41.00;;;;;;4923679;29;20473;-84
2023/06/08 12:20:31;;;;;;;9.27;8.57;;;31.20;39.50;;;;;;4940279;28;20834;-84
2023/06/08 12:22:58;;;;;;;9.43;8.53;;;31.10;39.90;;;;;;4930009;29;20951;-83
2023/06/08 12:25:26;;;;;;;8.93;8.00;;;30.90;40.50;;;;;;4928015;29;20488;-82
2023/06/08 12:27:54;;;;;;;8.97;8.10;;;30.80;40.90;;;;;;4950673;28;20474;-83
2023/06/08 12:30:23;;;;;;;9.17;8.40;;;30.70;41.00;;;;;;4909997;29;20467;-84
2023/06/08 12:32:50;;;;;;;9.00;8.10;;;30.60;41.50;;;;;;4930629;29;20474;-84
2023/06/08 12:35:17;;;;;;;9.17;8.30;;;30.60;42.20;;;;;;4927048;29;20812;-85
2023/06/08 12:37:48;;;;;;;10.00;9.00;;;30.50;42.30;;;;;;4935672;29;21593;-82
2023/06/08 12:40:15;;;;;;;8.90;8.10;;;30.50;42.40;;;;;;4934529;29;21002;-84
2023/06/08 12:42:48;;;;;;;8.23;7.63;;;30.30;42.20;;;;;;4916764;29;20473;-83
2023/06/08 12:45:16;;;;;;;7.93;7.33;;;30.10;42.70;;;;;;4910460;29;20447;-83
2023/06/08 12:47:44;;;;;;;7.70;7.00;;;29.90;42.80;;;;;;4942489;28;20545;-83